Богашево

Карта отелей и гостиниц, располагающихся рядом с аэропортом Богашево :

Богашево
Томск
Томская область 56° 22' 59.2788" N, 85° 12' 37.8612" E
Код аэродрома ИКАО
UNTT
Код аэродрома RU
УНТТ
Координаты
N56.38313° E085.21052°
Превышение над уровнем моря
182
Основная полоса
03L/21R
Курс магнитный
024,9/204,9
Длина основной ВПП
2500
Ширина основной ВПП
50
Покрытие основной ВПП
Твёрдое (асфальтобетон)
Освещение ВПП
Постоянное
Тип: 
Аэродром
Класс аэродрома: 
Международный
Принадлежность: 
ГА
Статус: 
Действующий
Сайт: 
http://airport.tomsk.ru/
Страна: 
Россия
Регион: 
Томская область
Город: 
Томск
Дополнительная информация: 
Военный индекс: XNTT / ЬНТТ.
Схемы аэропортов: 
Погода: 

Авиационная погода в Богашево

Регион: 
Погода METAR: 
UNTT 282200Z 18002MPS CAVOK 12/11 Q1006 R21/090060 NOSIG RMK QFE739
Время наблюдения
2022-06-28T22:00:00Z
Температура C
12.0
Точка росы
11.0
Направление ветра
180
Скорость ветра (узлы)
4
Метео видимость
6.21
Облачность
CAVOK
Нижняя граница облачности (футы)
Явления погоды
Условия полета
VFR
Аэропорт подробнее: 

Найти трансфер

С помощью этой формы Вы можете найти трансфер из аэропорта Богашево в город, аэропорт или вокзал:

Погода в аэропортах:

Авиационная погода в Закаталы

Регион: 
Погода METAR: 
UBBY 040100Z 08014KT 5000 -SHRA SCT040CB OVC045 15/14 Q1019 NOSIG RMK MT OBSC
Время наблюдения
2022-07-04T01:00:00Z
Температура C
15.0
Точка росы
14.0
Направление ветра
80
Скорость ветра (узлы)
14
Метео видимость
3.11
Облачность
SCT
OVC
Нижняя граница облачности (футы)
4000
4500
Явления погоды
-SHRA
Условия полета
MVFR
SCT – разбросанная отдельная облачность; OVC – сплошная облачность;
-SHRA - слабый ливневой дождь;

Авиационная погода в Бухте Провидения

Погода METAR: 
UHMD 282200Z 20004MPS 2500 BR OVC003 06/05 Q1018 RMK QBB110 MT OBSC QFE763/1017
Время наблюдения
2022-06-28T22:00:00Z
Температура C
6.0
Точка росы
5.0
Направление ветра
200
Скорость ветра (узлы)
8
Метео видимость
1.55
Облачность
OVC
Нижняя граница облачности (футы)
300
Явления погоды
BR
Условия полета
LIFR
Аэропорт подробнее: 
OVC – сплошная облачность;
BR – дымка (видимость от 1 до 9 км);

Авиационная погода в Мирном

Регион: 
Погода METAR: 
UERR 282200Z 06003MPS 0700 FG VV003 10/10 Q1000 R07/CLRD60 TEMPO 0300 FG VV001 RMK QBB070 QFE720/0960
Время наблюдения
2022-06-28T22:00:00Z
Температура C
10.0
Точка росы
10.0
Направление ветра
60
Скорость ветра (узлы)
6
Метео видимость
0.43
Облачность
OVX
Нижняя граница облачности (футы)
0
Явления погоды
FG
Условия полета
LIFR
Аэропорт подробнее: 
FG – туман (небо не видно, температура воздуха выше нуля или ноль);

Авиационная погода в Архангельске

Регион: 
Погода METAR: 
ULAA 282200Z 00000MPS 9999 MIFG NSC 06/06 Q1028 R26/CLRD70 NOSIG RMK QFE769/1026
Время наблюдения
2022-06-28T22:00:00Z
Температура C
6.0
Точка росы
6.0
Направление ветра
0
Скорость ветра (узлы)
0
Метео видимость
6.21
Облачность
CLR
Нижняя граница облачности (футы)
Явления погоды
MIFG
Условия полета
VFR
Аэропорт подробнее: 
CLR — нет облаков ниже 3000 м
MIFG - туман поземный;